Time;durP1;ratioP1;P1;durP2;ratioP2;P2;SDS_P1;SDS_P2;PMS_P1;PMS_P2;Temp;Humidity;BMP_temperature;BMP_pressure;BME280_temperature;BME280_humidity;BME280_pressure;Samples;Min_cycle;Max_cycle;Signal;HPM_P1;HPM_P2
2023/01/19 00:01:10;;;;;;;6.18;1.48;;;;;;;;;;5010683;28;20124;-74
2023/01/19 00:03:35;;;;;;;6.10;1.50;;;;;;;;;;5015455;28;20105;-76
2023/01/19 00:06:04;;;;;;;4.30;1.00;;;;;;;;;;5010970;28;20296;-75
2023/01/19 00:08:30;;;;;;;6.68;1.10;;;;;;;;;;5002005;28;20117;-74
2023/01/19 00:10:55;;;;;;;4.80;1.45;;;;;;;;;;4986268;28;20534;-76
2023/01/19 00:13:20;;;;;;;6.00;1.30;;;;;;;;;;5010947;28;20791;-75
2023/01/19 00:15:45;;;;;;;5.43;1.40;;;;;;;;;;5009115;28;20409;-76
2023/01/19 00:18:11;;;;;;;4.73;1.40;;;;;;;;;;5010068;28;20277;-76
2023/01/19 00:20:36;;;;;;;4.37;1.37;;;;;;;;;;5004977;28;20116;-76
2023/01/19 00:23:02;;;;;;;7.03;1.33;;;;;;;;;;4995745;28;20050;-76
2023/01/19 00:25:27;;;;;;;6.35;1.60;;;;;;;;;;4996603;28;20037;-75
2023/01/19 00:27:52;;;;;;;5.47;1.27;;;;;;;;;;4999923;28;20034;-75
2023/01/19 00:30:17;;;;;;;5.57;1.40;;;;;;;;;;5012705;28;20054;-76
2023/01/19 00:32:43;;;;;;;5.15;1.20;;;;;;;;;;5003144;28;20034;-75
2023/01/19 00:35:08;;;;;;;6.30;1.30;;;;;;;;;;5013313;28;20336;-76
2023/01/19 00:37:33;;;;;;;5.60;1.30;;;;;;;;;;5013532;28;20096;-76
2023/01/19 00:39:58;;;;;;;5.30;1.20;;;;;;;;;;5012282;28;20281;-75
2023/01/19 00:42:39;;;;;;;5.07;1.30;;;;;;;;;;5000291;28;20033;-75
2023/01/19 00:45:07;;;;;;;6.20;1.33;;;;;;;;;;4979817;28;20053;-75
2023/01/19 00:47:33;;;;;;;6.03;1.45;;;;;;;;;;5013357;28;20042;-74
2023/01/19 00:49:58;;;;;;;4.70;1.07;;;;;;;;;;5012916;28;20045;-74
2023/01/19 00:52:23;;;;;;;6.40;1.03;;;;;;;;;;4997363;28;20342;-75
2023/01/19 00:54:49;;;;;;;5.35;1.63;;;;;;;;;;4995988;28;20360;-75
2023/01/19 00:57:14;;;;;;;4.78;1.65;;;;;;;;;;4984723;28;20029;-74
2023/01/19 00:59:39;;;;;;;4.72;1.10;;;;;;;;;;4997765;28;20022;-75
2023/01/19 01:02:05;;;;;;;5.78;1.60;;;;;;;;;;4996891;28;20104;-75
2023/01/19 01:04:30;;;;;;;3.63;1.23;;;;;;;;;;4995271;28;20021;-75
2023/01/19 01:06:55;;;;;;;4.82;1.35;;;;;;;;;;4986866;28;20094;-75
2023/01/19 01:09:20;;;;;;;4.27;1.23;;;;;;;;;;5012956;28;20095;-74
2023/01/19 01:11:46;;;;;;;5.25;1.30;;;;;;;;;;5020760;28;20052;-75
2023/01/19 01:14:11;;;;;;;8.50;1.43;;;;;;;;;;5015928;28;20665;-75
2023/01/19 01:16:36;;;;;;;4.78;1.33;;;;;;;;;;5012702;28;20334;-75
2023/01/19 01:19:01;;;;;;;3.23;1.07;;;;;;;;;;5012676;28;20021;-75
2023/01/19 01:21:27;;;;;;;5.40;1.30;;;;;;;;;;5024768;23;20292;-58
2023/01/19 01:23:52;;;;;;;3.83;1.23;;;;;;;;;;4987808;28;21158;-60
2023/01/19 01:26:17;;;;;;;4.70;1.25;;;;;;;;;;5001544;28;20027;-61
2023/01/19 01:28:43;;;;;;;5.50;1.50;;;;;;;;;;5004781;28;20171;-62
2023/01/19 01:31:08;;;;;;;6.73;1.60;;;;;;;;;;5006264;28;20324;-65
2023/01/19 01:33:33;;;;;;;6.70;1.80;;;;;;;;;;5006224;28;21083;-58
2023/01/19 01:35:58;;;;;;;5.90;1.43;;;;;;;;;;5007635;28;20383;-65
2023/01/19 01:38:23;;;;;;;6.70;1.40;;;;;;;;;;5006459;28;20410;-62
2023/01/19 01:40:49;;;;;;;8.43;1.70;;;;;;;;;;5021692;23;20334;-74
2023/01/19 01:43:15;;;;;;;5.53;1.77;;;;;;;;;;4991183;28;20364;-74
2023/01/19 01:45:40;;;;;;;9.93;1.80;;;;;;;;;;4988921;28;20328;-73
2023/01/19 01:48:09;;;;;;;7.72;1.42;;;;;;;;;;4991977;28;20097;-73
2023/01/19 01:50:36;;;;;;;5.15;1.50;;;;;;;;;;4979993;28;20322;-74
2023/01/19 01:53:03;;;;;;;4.45;1.40;;;;;;;;;;4977744;28;20056;-74
2023/01/19 01:55:28;;;;;;;5.65;1.15;;;;;;;;;;4990649;28;20117;-74
2023/01/19 01:57:56;;;;;;;7.50;1.40;;;;;;;;;;4992535;28;20102;-73
2023/01/19 02:00:21;;;;;;;5.85;1.40;;;;;;;;;;4983486;28;20281;-75
2023/01/19 02:02:50;;;;;;;6.10;1.40;;;;;;;;;;4990659;28;20040;-73
2023/01/19 02:05:23;;;;;;;5.20;1.60;;;;;;;;;;4989131;28;20035;-73
2023/01/19 02:13:25;;;;;;;6.63;1.38;;;;;;;;;;4989559;28;20579;-73
2023/01/19 02:15:51;;;;;;;6.50;1.20;;;;;;;;;;4973524;28;20023;-73
2023/01/19 02:18:17;;;;;;;6.53;1.25;;;;;;;;;;4972952;28;20548;-73
2023/01/19 02:20:45;;;;;;;7.78;1.60;;;;;;;;;;5001911;28;20113;-73
2023/01/19 02:23:14;;;;;;;4.57;1.30;;;;;;;;;;4972569;28;20045;-73
2023/01/19 02:25:39;;;;;;;8.40;1.83;;;;;;;;;;4985208;28;20033;-73
2023/01/19 02:28:04;;;;;;;7.97;1.37;;;;;;;;;;4974481;28;20041;-75
2023/01/19 02:30:31;;;;;;;4.88;1.45;;;;;;;;;;4980140;28;20046;-74
2023/01/19 02:32:56;;;;;;;6.60;1.60;;;;;;;;;;4979512;28;20026;-73
2023/01/19 02:35:22;;;;;;;6.63;1.67;;;;;;;;;;4972163;28;20030;-73
2023/01/19 02:37:47;;;;;;;7.63;1.50;;;;;;;;;;4988190;28;20038;-73
2023/01/19 02:40:13;;;;;;;5.72;1.35;;;;;;;;;;4973730;28;20061;-74
2023/01/19 02:42:47;;;;;;;3.63;1.20;;;;;;;;;;4993820;28;20043;-75
2023/01/19 02:45:13;;;;;;;5.40;1.35;;;;;;;;;;4955405;28;20097;-75
2023/01/19 02:47:49;;;;;;;6.40;1.65;;;;;;;;;;4980532;28;20121;-74
2023/01/19 02:50:32;;;;;;;5.00;1.20;;;;;;;;;;4977786;28;20156;-75
2023/01/19 02:52:59;;;;;;;7.72;1.63;;;;;;;;;;4993322;28;20054;-73
2023/01/19 02:55:26;;;;;;;3.75;1.60;;;;;;;;;;4971575;28;20500;-73
2023/01/19 02:58:12;;;;;;;7.82;1.85;;;;;;;;;;4974401;28;20458;-73
2023/01/19 03:00:52;;;;;;;5.43;1.30;;;;;;;;;;4981393;28;20104;-73
2023/01/19 03:03:39;;;;;;;6.38;1.52;;;;;;;;;;4984477;28;20042;-73
2023/01/19 03:06:05;;;;;;;7.25;1.60;;;;;;;;;;4982204;28;20224;-73
2023/01/19 03:08:41;;;;;;;5.38;1.45;;;;;;;;;;4997543;28;20049;-73
2023/01/19 03:11:10;;;;;;;5.05;1.55;;;;;;;;;;4973538;28;20173;-73
2023/01/19 03:13:46;;;;;;;5.55;1.23;;;;;;;;;;4986939;28;20453;-74
2023/01/19 03:16:23;;;;;;;4.80;1.23;;;;;;;;;;4987423;28;20026;-74
2023/01/19 03:19:00;;;;;;;3.75;1.20;;;;;;;;;;5003761;28;20049;-73
2023/01/19 03:21:26;;;;;;;3.35;0.98;;;;;;;;;;4989664;28;20100;-73
2023/01/19 03:23:51;;;;;;;3.42;1.25;;;;;;;;;;4962058;28;20516;-74
2023/01/19 03:26:18;;;;;;;5.23;1.33;;;;;;;;;;4970306;28;20035;-73
2023/01/19 03:28:43;;;;;;;6.57;1.80;;;;;;;;;;4969414;28;20300;-74
2023/01/19 03:31:16;;;;;;;4.23;1.10;;;;;;;;;;4969540;28;20038;-74
2023/01/19 03:33:42;;;;;;;4.85;1.20;;;;;;;;;;4970126;28;20289;-73
2023/01/19 03:36:11;;;;;;;3.95;1.15;;;;;;;;;;4986819;28;20038;-74
2023/01/19 03:38:36;;;;;;;6.15;1.48;;;;;;;;;;4992651;28;20040;-73
2023/01/19 03:41:02;;;;;;;4.90;1.40;;;;;;;;;;4986593;28;20046;-73
2023/01/19 03:43:27;;;;;;;6.68;1.20;;;;;;;;;;4969839;28;20066;-74
2023/01/19 03:45:52;;;;;;;6.07;1.27;;;;;;;;;;5002845;28;20172;-73
2023/01/19 03:48:18;;;;;;;5.93;1.53;;;;;;;;;;4972054;28;20320;-73
2023/01/19 03:50:44;;;;;;;6.65;1.45;;;;;;;;;;4987151;28;20042;-73
2023/01/19 03:53:13;;;;;;;4.53;1.25;;;;;;;;;;4970734;28;20035;-73
2023/01/19 03:55:39;;;;;;;6.03;1.13;;;;;;;;;;4994102;28;20039;-73
2023/01/19 03:58:04;;;;;;;4.30;1.10;;;;;;;;;;4970816;28;20022;-75
2023/01/19 04:00:29;;;;;;;5.37;1.30;;;;;;;;;;4978629;28;20057;-73
2023/01/19 04:02:55;;;;;;;9.87;1.50;;;;;;;;;;4973335;28;20316;-74
2023/01/19 04:05:21;;;;;;;8.23;1.63;;;;;;;;;;4988313;28;20306;-75
2023/01/19 04:07:49;;;;;;;6.55;1.50;;;;;;;;;;4992836;28;20049;-74
2023/01/19 04:10:18;;;;;;;9.77;1.70;;;;;;;;;;4983700;28;20057;-74
2023/01/19 04:12:43;;;;;;;6.05;1.42;;;;;;;;;;4973071;28;20034;-73
2023/01/19 04:15:08;;;;;;;6.43;1.35;;;;;;;;;;4989656;28;20512;-74
2023/01/19 04:17:34;;;;;;;4.80;1.33;;;;;;;;;;4972188;28;20046;-74
2023/01/19 04:19:59;;;;;;;5.07;1.50;;;;;;;;;;4977967;28;20050;-74
2023/01/19 04:22:24;;;;;;;5.33;1.47;;;;;;;;;;4987987;28;20039;-72
2023/01/19 04:24:50;;;;;;;10.93;1.50;;;;;;;;;;4970137;28;20377;-73
2023/01/19 04:27:16;;;;;;;4.85;1.30;;;;;;;;;;4987125;28;20034;-73
2023/01/19 04:29:41;;;;;;;6.60;1.50;;;;;;;;;;4987970;28;20081;-73
2023/01/19 04:32:07;;;;;;;4.13;1.07;;;;;;;;;;4969581;28;20027;-73
2023/01/19 04:34:32;;;;;;;6.55;1.70;;;;;;;;;;5002560;28;20404;-73
2023/01/19 04:36:57;;;;;;;6.80;1.50;;;;;;;;;;4988007;28;20125;-74
2023/01/19 04:39:22;;;;;;;7.67;1.60;;;;;;;;;;4990719;28;20336;-74
2023/01/19 04:41:48;;;;;;;6.40;1.30;;;;;;;;;;4998056;28;20301;-73
2023/01/19 04:44:13;;;;;;;4.05;1.27;;;;;;;;;;4986021;28;20027;-72
2023/01/19 04:46:38;;;;;;;7.95;1.50;;;;;;;;;;4982278;28;20028;-73
2023/01/19 04:49:03;;;;;;;5.30;1.50;;;;;;;;;;4970500;28;20037;-73
2023/01/19 04:51:29;;;;;;;5.67;1.40;;;;;;;;;;4988293;28;20306;-73
2023/01/19 04:53:54;;;;;;;8.90;1.60;;;;;;;;;;4985222;28;20835;-74
2023/01/19 04:56:19;;;;;;;6.10;1.30;;;;;;;;;;4973209;28;20117;-74
2023/01/19 04:58:44;;;;;;;7.77;1.20;;;;;;;;;;4968148;28;20030;-74
2023/01/19 05:01:10;;;;;;;4.93;1.10;;;;;;;;;;4985682;28;20032;-73
2023/01/19 05:03:35;;;;;;;6.10;1.13;;;;;;;;;;5004114;28;20097;-75
2023/01/19 05:06:00;;;;;;;6.15;1.17;;;;;;;;;;4969055;28;20270;-73
2023/01/19 05:08:25;;;;;;;5.93;1.30;;;;;;;;;;4970692;28;20120;-73
2023/01/19 05:10:51;;;;;;;6.90;1.40;;;;;;;;;;4989312;28;20804;-72
2023/01/19 05:13:16;;;;;;;6.03;1.50;;;;;;;;;;4989056;28;20707;-73
2023/01/19 05:15:41;;;;;;;4.13;1.08;;;;;;;;;;4972310;28;20443;-74
2023/01/19 05:18:06;;;;;;;4.72;1.20;;;;;;;;;;4955599;28;20096;-73
2023/01/19 05:20:32;;;;;;;5.13;1.03;;;;;;;;;;4987736;28;20152;-73
2023/01/19 05:22:57;;;;;;;6.00;1.50;;;;;;;;;;5001405;28;21004;-73
2023/01/19 05:25:22;;;;;;;9.03;1.60;;;;;;;;;;4988417;28;20500;-73
2023/01/19 05:27:47;;;;;;;9.20;2.10;;;;;;;;;;4990747;28;20444;-73
2023/01/19 05:30:13;;;;;;;6.80;1.63;;;;;;;;;;4988488;28;20042;-72
2023/01/19 05:32:38;;;;;;;4.97;1.27;;;;;;;;;;4989105;28;20029;-72
2023/01/19 05:35:03;;;;;;;5.27;1.70;;;;;;;;;;4987163;28;20030;-72
2023/01/19 05:37:31;;;;;;;8.05;1.75;;;;;;;;;;4972594;28;20026;-72
2023/01/19 05:39:56;;;;;;;8.93;1.70;;;;;;;;;;4972553;28;20085;-73
2023/01/19 05:42:21;;;;;;;5.43;1.73;;;;;;;;;;4989935;28;20033;-74
2023/01/19 05:44:47;;;;;;;6.50;1.60;;;;;;;;;;4976525;28;20034;-73
2023/01/19 05:47:12;;;;;;;5.63;1.40;;;;;;;;;;5006765;28;20268;-72
2023/01/19 05:49:37;;;;;;;8.33;1.70;;;;;;;;;;4991661;28;20160;-73
2023/01/19 05:52:03;;;;;;;6.37;1.80;;;;;;;;;;4990549;28;20033;-73
2023/01/19 05:54:28;;;;;;;3.78;1.20;;;;;;;;;;4974148;28;20030;-73
2023/01/19 05:56:53;;;;;;;5.50;1.50;;;;;;;;;;4991474;28;20034;-74
2023/01/19 05:59:22;;;;;;;7.13;1.53;;;;;;;;;;4991875;28;20278;-73
2023/01/19 06:01:48;;;;;;;4.22;1.38;;;;;;;;;;4991335;28;20282;-73
2023/01/19 06:04:13;;;;;;;6.35;1.33;;;;;;;;;;4981387;28;20022;-76
2023/01/19 06:06:39;;;;;;;5.53;1.47;;;;;;;;;;4992637;28;20023;-77
2023/01/19 06:09:04;;;;;;;7.70;1.67;;;;;;;;;;4973912;28;20023;-74
2023/01/19 06:11:29;;;;;;;4.93;1.33;;;;;;;;;;4990143;28;20473;-75
2023/01/19 06:13:54;;;;;;;6.93;1.67;;;;;;;;;;4991680;28;20590;-77
2023/01/19 06:16:20;;;;;;;6.82;1.70;;;;;;;;;;4974171;28;20504;-75
2023/01/19 06:18:45;;;;;;;7.50;1.57;;;;;;;;;;5001868;28;20030;-77
2023/01/19 06:21:12;;;;;;;6.03;1.60;;;;;;;;;;4973366;28;20037;-74
2023/01/19 06:23:37;;;;;;;7.18;1.73;;;;;;;;;;4974619;28;20229;-74
2023/01/19 06:26:03;;;;;;;8.83;1.47;;;;;;;;;;4989543;28;20060;-76
2023/01/19 06:28:28;;;;;;;9.48;1.60;;;;;;;;;;4987487;28;20811;-73
2023/01/19 06:30:53;;;;;;;5.50;1.40;;;;;;;;;;4972642;28;20050;-74
2023/01/19 06:33:19;;;;;;;5.32;1.42;;;;;;;;;;4986117;28;20286;-71
2023/01/19 06:35:44;;;;;;;6.22;1.40;;;;;;;;;;4994252;28;20038;-70
2023/01/19 06:38:10;;;;;;;5.97;1.48;;;;;;;;;;4995525;28;20423;-70
2023/01/19 06:40:35;;;;;;;5.27;1.10;;;;;;;;;;4973045;28;20051;-71
2023/01/19 06:43:00;;;;;;;5.47;1.60;;;;;;;;;;4985874;28;20278;-73
2023/01/19 06:45:25;;;;;;;5.73;1.43;;;;;;;;;;4971925;28;20649;-71
2023/01/19 06:47:50;;;;;;;6.90;1.63;;;;;;;;;;4980846;28;20054;-71
2023/01/19 06:50:16;;;;;;;6.17;1.50;;;;;;;;;;4988977;28;20043;-71
2023/01/19 06:52:41;;;;;;;9.00;2.40;;;;;;;;;;4972740;28;20039;-72
2023/01/19 06:55:10;;;;;;;6.55;1.33;;;;;;;;;;4988737;28;20468;-74
2023/01/19 06:57:39;;;;;;;7.68;1.92;;;;;;;;;;4974618;28;20050;-73
2023/01/19 07:00:06;;;;;;;6.72;1.70;;;;;;;;;;4981461;28;20038;-73
2023/01/19 07:02:32;;;;;;;6.15;1.50;;;;;;;;;;4987658;28;20085;-72
2023/01/19 07:04:57;;;;;;;4.85;1.20;;;;;;;;;;5003339;28;20030;-73
2023/01/19 07:07:23;;;;;;;8.03;1.67;;;;;;;;;;4972200;28;20065;-75
2023/01/19 07:09:48;;;;;;;5.67;1.10;;;;;;;;;;4968322;28;20141;-71
2023/01/19 07:12:13;;;;;;;3.60;1.27;;;;;;;;;;4986765;28;20285;-73
2023/01/19 07:14:38;;;;;;;5.67;1.70;;;;;;;;;;4986566;28;20030;-72
2023/01/19 07:17:03;;;;;;;6.03;1.50;;;;;;;;;;4986645;28;20452;-72
2023/01/19 07:19:30;;;;;;;5.70;1.60;;;;;;;;;;4986332;28;20041;-72
2023/01/19 07:21:55;;;;;;;5.88;1.30;;;;;;;;;;5002135;28;20038;-73
2023/01/19 07:24:20;;;;;;;5.50;1.15;;;;;;;;;;4994316;28;20038;-72
2023/01/19 07:26:45;;;;;;;7.55;1.50;;;;;;;;;;4989457;28;20026;-72
2023/01/19 07:29:11;;;;;;;6.47;1.70;;;;;;;;;;4985089;28;20038;-71
2023/01/19 07:31:36;;;;;;;8.50;1.63;;;;;;;;;;4986925;28;20377;-75
2023/01/19 07:34:02;;;;;;;9.63;1.77;;;;;;;;;;4990169;28;20110;-75
2023/01/19 07:36:27;;;;;;;10.32;2.20;;;;;;;;;;5014548;28;20038;-73
2023/01/19 07:38:52;;;;;;;6.13;1.40;;;;;;;;;;4971431;28;20031;-72
2023/01/19 07:41:17;;;;;;;7.70;1.97;;;;;;;;;;4971795;28;20038;-71
2023/01/19 07:43:43;;;;;;;9.97;1.73;;;;;;;;;;4987448;28;20514;-71
2023/01/19 07:46:08;;;;;;;7.38;1.90;;;;;;;;;;4990223;28;20284;-72
2023/01/19 07:48:33;;;;;;;6.47;1.90;;;;;;;;;;4977895;28;20080;-72
2023/01/19 07:51:04;;;;;;;10.17;2.17;;;;;;;;;;4988624;28;20289;-73
2023/01/19 07:53:29;;;;;;;8.77;2.00;;;;;;;;;;4988023;28;20294;-72
2023/01/19 07:55:55;;;;;;;8.02;1.60;;;;;;;;;;5004220;28;20045;-73
2023/01/19 07:58:20;;;;;;;6.38;1.50;;;;;;;;;;4955562;28;20057;-74
2023/01/19 08:00:46;;;;;;;8.70;2.05;;;;;;;;;;4987982;28;20030;-72
2023/01/19 08:03:11;;;;;;;9.57;1.87;;;;;;;;;;4981691;28;20038;-73
2023/01/19 08:05:36;;;;;;;7.63;1.77;;;;;;;;;;4987838;28;20459;-73
2023/01/19 08:08:02;;;;;;;7.47;1.90;;;;;;;;;;4988001;28;20058;-75
2023/01/19 08:10:28;;;;;;;7.07;1.77;;;;;;;;;;5003132;28;20289;-73
2023/01/19 08:12:53;;;;;;;9.85;2.58;;;;;;;;;;4973513;28;20074;-71
2023/01/19 08:15:21;;;;;;;10.73;2.20;;;;;;;;;;4972022;28;20038;-73
2023/01/19 08:17:52;;;;;;;9.65;1.95;;;;;;;;;;4968692;28;20038;-72
2023/01/19 08:20:18;;;;;;;6.53;1.80;;;;;;;;;;4970601;28;20114;-72
2023/01/19 08:22:45;;;;;;;12.60;2.53;;;;;;;;;;4974777;28;20046;-71
2023/01/19 08:25:11;;;;;;;8.50;2.30;;;;;;;;;;4992517;28;20037;-73
2023/01/19 08:27:36;;;;;;;15.27;2.70;;;;;;;;;;4994391;28;20042;-73
2023/01/19 08:30:01;;;;;;;6.90;1.97;;;;;;;;;;4987541;28;20046;-72
2023/01/19 08:32:26;;;;;;;9.10;2.40;;;;;;;;;;4968268;28;20049;-74
2023/01/19 08:34:52;;;;;;;9.67;2.17;;;;;;;;;;4988445;28;20866;-73
2023/01/19 08:37:17;;;;;;;8.80;1.67;;;;;;;;;;5002719;28;20667;-73
2023/01/19 08:39:42;;;;;;;10.73;2.20;;;;;;;;;;4971549;28;20289;-73
2023/01/19 08:42:07;;;;;;;9.30;1.73;;;;;;;;;;4990621;28;20042;-73
2023/01/19 08:44:33;;;;;;;8.48;1.90;;;;;;;;;;4991492;28;20362;-74
2023/01/19 08:46:58;;;;;;;9.07;1.77;;;;;;;;;;4978952;28;20105;-73
2023/01/19 08:49:24;;;;;;;8.82;2.45;;;;;;;;;;4991993;28;20659;-74
2023/01/19 08:51:49;;;;;;;10.53;1.90;;;;;;;;;;4997885;28;20147;-74
2023/01/19 08:54:15;;;;;;;9.23;1.93;;;;;;;;;;4996725;28;20285;-74
2023/01/19 08:56:41;;;;;;;10.27;1.90;;;;;;;;;;4992394;28;20073;-74
2023/01/19 08:59:06;;;;;;;9.05;2.03;;;;;;;;;;4996109;28;20073;-75
2023/01/19 09:01:31;;;;;;;9.43;2.00;;;;;;;;;;4984169;28;20126;-75
2023/01/19 09:03:56;;;;;;;8.63;2.77;;;;;;;;;;4973769;28;20282;-73
2023/01/19 09:06:24;;;;;;;7.25;1.98;;;;;;;;;;4990532;28;20038;-74
2023/01/19 09:08:49;;;;;;;11.23;2.28;;;;;;;;;;4991564;28;20034;-74
2023/01/19 09:11:14;;;;;;;7.80;2.03;;;;;;;;;;4990460;28;20139;-72
2023/01/19 09:13:40;;;;;;;9.02;2.05;;;;;;;;;;4975910;28;20278;-73
2023/01/19 09:16:06;;;;;;;9.80;1.92;;;;;;;;;;4992383;28;20034;-73
2023/01/19 09:18:31;;;;;;;9.18;2.05;;;;;;;;;;5005732;28;20038;-74
2023/01/19 09:20:57;;;;;;;7.47;2.27;;;;;;;;;;4985972;28;20180;-73
2023/01/19 09:23:22;;;;;;;8.83;1.83;;;;;;;;;;4992193;28;20807;-72
2023/01/19 09:25:47;;;;;;;6.73;1.53;;;;;;;;;;4977996;28;20384;-73
2023/01/19 09:28:13;;;;;;;8.88;1.88;;;;;;;;;;5008485;28;20042;-72
2023/01/19 09:30:39;;;;;;;8.77;2.08;;;;;;;;;;4988316;28;20296;-72
2023/01/19 09:33:09;;;;;;;11.02;2.50;;;;;;;;;;4960734;28;20034;-72
2023/01/19 09:35:35;;;;;;;7.35;1.75;;;;;;;;;;4990958;28;20069;-72
2023/01/19 09:38:01;;;;;;;8.55;1.90;;;;;;;;;;4975269;28;20420;-74
2023/01/19 09:40:26;;;;;;;6.70;1.88;;;;;;;;;;4991351;28;20038;-73
2023/01/19 09:42:54;;;;;;;8.43;2.37;;;;;;;;;;4974018;28;20041;-72
2023/01/19 09:45:26;;;;;;;6.75;1.85;;;;;;;;;;4979576;28;20310;-72
2023/01/19 09:47:51;;;;;;;8.55;1.95;;;;;;;;;;4976473;28;20044;-73
2023/01/19 09:50:23;;;;;;;7.53;2.03;;;;;;;;;;4957091;28;20034;-71
2023/01/19 09:52:52;;;;;;;7.20;2.10;;;;;;;;;;4987092;28;20081;-71
2023/01/19 09:55:24;;;;;;;8.15;2.10;;;;;;;;;;4985521;28;20054;-73
2023/01/19 09:57:49;;;;;;;7.38;2.05;;;;;;;;;;4992622;28;20686;-72
2023/01/19 10:00:18;;;;;;;9.23;2.03;;;;;;;;;;4990935;28;20531;-71
2023/01/19 10:02:54;;;;;;;8.75;2.30;;;;;;;;;;4999086;28;20141;-70
2023/01/19 10:05:20;;;;;;;7.13;1.92;;;;;;;;;;4996389;28;20133;-70
2023/01/19 10:07:52;;;;;;;5.23;1.63;;;;;;;;;;5012111;28;20060;-72
2023/01/19 10:10:30;;;;;;;8.05;1.77;;;;;;;;;;4992769;28;20062;-71
2023/01/19 10:13:13;;;;;;;9.70;2.15;;;;;;;;;;4985359;28;20061;-71
2023/01/19 10:15:58;;;;;;;7.30;1.88;;;;;;;;;;4989767;28;20042;-71
2023/01/19 10:18:33;;;;;;;9.38;2.75;;;;;;;;;;4990477;28;20038;-73
2023/01/19 10:21:24;;;;;;;10.02;3.72;;;;;;;;;;4972548;28;20497;-72
2023/01/19 10:23:57;;;;;;;11.13;3.25;;;;;;;;;;4949210;28;20065;-72
2023/01/19 10:26:23;;;;;;;8.70;2.70;;;;;;;;;;5005549;28;20029;-72
2023/01/19 10:28:50;;;;;;;9.30;2.97;;;;;;;;;;5005605;28;20463;-72
2023/01/19 10:31:20;;;;;;;8.00;2.67;;;;;;;;;;4989509;28;20546;-72
2023/01/19 10:33:45;;;;;;;;;;;;;;;;;;4992852;28;20027;-72
2023/01/19 10:36:33;;;;;;;10.25;2.80;;;;;;;;;;4993267;28;19909;-73
2023/01/19 10:38:58;;;;;;;7.57;2.78;;;;;;;;;;4998243;28;20728;-73
2023/01/19 10:41:29;;;;;;;11.20;2.47;;;;;;;;;;4975018;28;20100;-75
2023/01/19 10:43:58;;;;;;;8.07;2.53;;;;;;;;;;5000781;28;20143;-71
2023/01/19 10:46:32;;;;;;;9.20;2.45;;;;;;;;;;4973304;28;20039;-71
2023/01/19 10:48:57;;;;;;;9.30;2.53;;;;;;;;;;4998209;28;20037;-71
2023/01/19 10:51:22;;;;;;;8.30;1.87;;;;;;;;;;4973971;28;20552;-71
2023/01/19 10:53:54;;;;;;;8.10;2.17;;;;;;;;;;4979968;28;20285;-72
2023/01/19 10:56:23;;;;;;;6.72;2.20;;;;;;;;;;4988807;28;20077;-74
2023/01/19 10:58:48;;;;;;;8.23;2.10;;;;;;;;;;4973856;28;20037;-74
2023/01/19 11:01:17;;;;;;;8.60;2.27;;;;;;;;;;4989770;28;20656;-75
2023/01/19 11:03:43;;;;;;;5.90;1.90;;;;;;;;;;4984310;28;20025;-71
2023/01/19 11:06:14;;;;;;;8.82;2.47;;;;;;;;;;4971001;28;20149;-73
2023/01/19 11:08:39;;;;;;;7.20;2.08;;;;;;;;;;4989491;28;20014;-72
2023/01/19 11:11:07;;;;;;;6.30;1.88;;;;;;;;;;4990649;28;20037;-72
2023/01/19 11:13:32;;;;;;;5.30;1.83;;;;;;;;;;4972750;28;20023;-71
2023/01/19 11:16:11;;;;;;;8.93;2.25;;;;;;;;;;4989949;28;20028;-73
2023/01/19 11:18:37;;;;;;;6.87;1.90;;;;;;;;;;4972741;28;20037;-74
2023/01/19 11:21:06;;;;;;;8.00;2.55;;;;;;;;;;4988834;28;20061;-71
2023/01/19 11:23:40;;;;;;;6.70;1.75;;;;;;;;;;4994956;28;20054;-73
2023/01/19 11:26:06;;;;;;;7.13;1.83;;;;;;;;;;4972444;28;20550;-73
2023/01/19 11:28:34;;;;;;;6.53;1.73;;;;;;;;;;4989338;28;20042;-72
2023/01/19 11:31:00;;;;;;;7.35;1.90;;;;;;;;;;4989421;28;20043;-74
2023/01/19 11:33:31;;;;;;;8.68;1.92;;;;;;;;;;5003696;28;20039;-74
2023/01/19 11:36:17;;;;;;;6.47;1.90;;;;;;;;;;4984886;28;20038;-74
2023/01/19 11:38:43;;;;;;;5.63;1.92;;;;;;;;;;5000131;28;20030;-74
2023/01/19 11:41:29;;;;;;;7.10;2.10;;;;;;;;;;4973333;28;20130;-74
2023/01/19 11:43:59;;;;;;;5.82;2.05;;;;;;;;;;4952108;28;20470;-72
2023/01/19 11:46:26;;;;;;;8.15;1.90;;;;;;;;;;4953783;28;20362;-70
2023/01/19 11:48:56;;;;;;;4.40;1.90;;;;;;;;;;4957281;28;20039;-76
2023/01/19 11:51:21;;;;;;;7.78;2.08;;;;;;;;;;4938408;28;20031;-74
2023/01/19 11:53:48;;;;;;;8.35;1.73;;;;;;;;;;4968363;28;20038;-73
2023/01/19 11:56:13;;;;;;;6.53;2.03;;;;;;;;;;4979541;28;20035;-74
2023/01/19 11:58:39;;;;;;;6.50;1.52;;;;;;;;;;4955627;28;20035;-73
2023/01/19 12:01:06;;;;;;;5.38;1.65;;;;;;;;;;4966227;28;20157;-73
2023/01/19 12:03:33;;;;;;;5.88;1.63;;;;;;;;;;4948235;28;20050;-73
2023/01/19 12:06:12;;;;;;;6.43;1.95;;;;;;;;;;4974515;28;20086;-73
2023/01/19 12:08:42;;;;;;;6.37;1.43;;;;;;;;;;4949516;28;20085;-73
2023/01/19 12:11:07;;;;;;;;;;;;;;;;;;4951684;28;20740;-73
2023/01/19 12:13:32;;;;;;;4.68;1.20;;;;;;;;;;4958069;28;20357;-74
2023/01/19 12:16:04;;;;;;;5.50;1.33;;;;;;;;;;4957871;28;21504;-73
2023/01/19 12:18:33;;;;;;;7.45;1.80;;;;;;;;;;4953121;28;20035;-73
2023/01/19 12:20:58;;;;;;;5.40;1.80;;;;;;;;;;4991957;28;20031;-75
2023/01/19 12:23:23;;;;;;;4.90;1.50;;;;;;;;;;4969820;28;20014;-74
2023/01/19 12:26:07;;;;;;;4.23;1.53;;;;;;;;;;4953458;28;20023;-73
2023/01/19 12:28:39;;;;;;;5.93;2.00;;;;;;;;;;4954195;28;20078;-73
2023/01/19 12:31:04;;;;;;;5.85;1.58;;;;;;;;;;4969573;28;20031;-72
2023/01/19 12:33:37;;;;;;;3.57;1.37;;;;;;;;;;4957169;28;20035;-73
2023/01/19 12:36:03;;;;;;;5.13;1.45;;;;;;;;;;4986428;28;20337;-73
2023/01/19 12:38:38;;;;;;;5.10;1.77;;;;;;;;;;4940109;28;20589;-72
2023/01/19 12:41:22;;;;;;;5.68;1.40;;;;;;;;;;4999462;28;20045;-72
2023/01/19 12:44:08;;;;;;;5.75;1.58;;;;;;;;;;4986138;28;20522;-73
2023/01/19 12:46:33;;;;;;;5.15;1.70;;;;;;;;;;4986473;28;20046;-72
2023/01/19 12:49:07;;;;;;;4.43;1.30;;;;;;;;;;4985398;28;20038;-73
2023/01/19 12:51:33;;;;;;;4.15;1.25;;;;;;;;;;4993298;28;20312;-73
2023/01/19 12:54:01;;;;;;;4.60;1.50;;;;;;;;;;4977223;28;20069;-72
2023/01/19 12:56:28;;;;;;;5.07;1.40;;;;;;;;;;4981840;28;20035;-72
2023/01/19 12:58:53;;;;;;;4.30;1.50;;;;;;;;;;4992157;28;20037;-72
2023/01/19 13:01:20;;;;;;;3.97;1.40;;;;;;;;;;4984240;28;20038;-72
2023/01/19 13:03:45;;;;;;;5.32;1.40;;;;;;;;;;4994547;28;20296;-72
2023/01/19 13:06:11;;;;;;;4.50;1.63;;;;;;;;;;4990968;28;20683;-72
2023/01/19 13:08:51;;;;;;;5.33;1.50;;;;;;;;;;4998418;28;20045;-73
2023/01/19 13:11:17;;;;;;;5.10;1.70;;;;;;;;;;4991098;28;20909;-74
2023/01/19 13:13:46;;;;;;;4.00;1.35;;;;;;;;;;4983124;28;20121;-73
2023/01/19 13:16:17;;;;;;;5.63;1.45;;;;;;;;;;5007502;28;20038;-73
2023/01/19 13:18:49;;;;;;;5.05;1.52;;;;;;;;;;5014189;28;20141;-73
2023/01/19 13:21:33;;;;;;;4.80;1.42;;;;;;;;;;4974268;28;20074;-73
2023/01/19 13:24:05;;;;;;;5.53;1.20;;;;;;;;;;4988322;28;20035;-73
2023/01/19 13:26:34;;;;;;;4.70;1.48;;;;;;;;;;4990221;28;20341;-73
2023/01/19 13:29:05;;;;;;;5.07;1.40;;;;;;;;;;5008940;28;20045;-72
2023/01/19 13:31:37;;;;;;;5.15;1.65;;;;;;;;;;4971809;28;20071;-73
2023/01/19 13:34:02;;;;;;;6.45;1.20;;;;;;;;;;4988701;28;20109;-73
2023/01/19 13:36:28;;;;;;;5.30;1.37;;;;;;;;;;4984702;28;20134;-73
2023/01/19 13:38:54;;;;;;;4.35;1.30;;;;;;;;;;4983829;28;20292;-82
2023/01/19 13:41:21;;;;;;;6.13;1.50;;;;;;;;;;4995655;28;20046;-74
2023/01/19 13:43:46;;;;;;;4.50;1.23;;;;;;;;;;4975601;28;20026;-75
2023/01/19 13:46:11;;;;;;;5.03;1.37;;;;;;;;;;4973965;28;20113;-72
2023/01/19 13:48:37;;;;;;;4.90;1.10;;;;;;;;;;4989219;28;20041;-72
2023/01/19 13:51:05;;;;;;;5.17;1.20;;;;;;;;;;4967981;28;20053;-80
2023/01/19 13:53:31;;;;;;;5.47;1.30;;;;;;;;;;4987814;28;20112;-75
2023/01/19 13:56:15;;;;;;;6.93;1.63;;;;;;;;;;4987921;28;20466;-74
2023/01/19 13:58:40;;;;;;;5.00;1.15;;;;;;;;;;4957352;28;20030;-73
2023/01/19 14:01:06;;;;;;;7.40;1.40;;;;;;;;;;4986611;28;20030;-73
2023/01/19 14:03:31;;;;;;;9.82;1.95;;;;;;;;;;4973573;28;20452;-73
2023/01/19 14:05:57;;;;;;;6.50;1.63;;;;;;;;;;4990372;28;20045;-73
2023/01/19 14:08:22;;;;;;;5.37;1.23;;;;;;;;;;4990609;28;20035;-74
2023/01/19 14:10:50;;;;;;;6.60;1.30;;;;;;;;;;4991226;28;20323;-74
2023/01/19 14:13:16;;;;;;;7.95;1.70;;;;;;;;;;4991323;28;20458;-74
2023/01/19 14:15:41;;;;;;;8.70;1.75;;;;;;;;;;4991212;28;20148;-74
2023/01/19 14:18:12;;;;;;;4.65;1.13;;;;;;;;;;4988817;28;20034;-73
2023/01/19 14:20:38;;;;;;;7.80;1.40;;;;;;;;;;4989462;28;20126;-72
2023/01/19 14:23:03;;;;;;;8.30;1.83;;;;;;;;;;4990852;28;20491;-73
2023/01/19 14:25:28;;;;;;;7.10;1.38;;;;;;;;;;5003976;28;20057;-72
2023/01/19 14:28:12;;;;;;;8.05;1.52;;;;;;;;;;4989758;28;20164;-73
2023/01/19 14:30:37;;;;;;;6.82;1.58;;;;;;;;;;4994421;28;20044;-72
2023/01/19 14:33:03;;;;;;;3.67;1.13;;;;;;;;;;4977764;28;20046;-72
2023/01/19 14:35:28;;;;;;;10.10;1.90;;;;;;;;;;4990178;28;20369;-74
2023/01/19 14:37:54;;;;;;;4.68;1.40;;;;;;;;;;4989396;28;20034;-72
2023/01/19 14:40:19;;;;;;;9.10;1.60;;;;;;;;;;4986652;28;20058;-72
2023/01/19 14:42:48;;;;;;;8.50;2.10;;;;;;;;;;4998395;28;20297;-72
2023/01/19 14:45:15;;;;;;;7.07;1.70;;;;;;;;;;5001029;28;20040;-74
2023/01/19 14:47:40;;;;;;;6.30;1.60;;;;;;;;;;4979294;28;20077;-74
2023/01/19 14:50:24;;;;;;;8.95;1.48;;;;;;;;;;4987552;28;20512;-74